Terminal Aerodrome Forecast
Issued by NWS

Current Version | Previous Version | Text Only | Print | Product List | Glossary On
Versions: 1 2 3 4 5 6 7 8 9 10 11 12 13 14 15 16 17 18 19 20 21 22 23 24 25 26
000
FTUS42 KGSP 270043 AAA
TAFGMU
TAF AMD
KGMU 270043Z 2701/2724 20007KT P6SM SCT050 BKN110
     FM270800 25003KT P6SM SCT110
     FM271100 25007KT P6SM SCT050
     FM271600 29011G18KT P6SM FEW050
     FM272300 34007KT P6SM SCT250=

USA.gov is the U.S. government's official web portal to all federal, state and local government web resources and services.